Terminal Aerodrome Forecast
Issued by NWS

Home | Current Version | Previous Version | Text Only | Print | Product List | Glossary On
Versions: 1 2 3 4 5 6 7 8 9 10 11 12 13 14 15 16 17 18 19 20 21 22 23 24 25 26 27 28 29 30 31
000
FTUS41 KRNK 291140
TAFLWB
TAF
KLWB 291140Z 2912/3012 02003KT 6SM -RA BR SCT007 OVC015
      TEMPO 2912/2916 BKN007
     FM291600 04005KT 6SM BR BKN007 OVC015
     FM300000 00000KT 5SM -DZ BR SCT004 OVC010
     FM300600 01004KT 3SM -SN BR SCT007 OVC012=

USA.gov is the U.S. government's official web portal to all federal, state and local government web resources and services.